sensor_id;sensor_type;location;lat;lon;timestamp;P1;durP1;ratioP1;P2;durP2;ratioP2
65047;SDS011;52089;51.362;-2.384;2022-09-03T00:00:41;9.93;;;6.07;;
65047;SDS011;52089;51.362;-2.384;2022-09-03T00:08:29;9.47;;;5.87;;
65047;SDS011;52089;51.362;-2.384;2022-09-03T00:12:22;6.15;;;5.35;;
65047;SDS011;52089;51.362;-2.384;2022-09-03T00:16:10;8.87;;;6.67;;
65047;SDS011;52089;51.362;-2.384;2022-09-03T00:20:01;10.77;;;7.07;;
65047;SDS011;52089;51.362;-2.384;2022-09-03T00:24:02;7.97;;;5.97;;
65047;SDS011;52089;51.362;-2.384;2022-09-03T00:27:55;11.17;;;7.00;;
65047;SDS011;52089;51.362;-2.384;2022-09-03T00:31:45;11.20;;;8.90;;
65047;SDS011;52089;51.362;-2.384;2022-09-03T00:35:44;8.83;;;7.50;;
65047;SDS011;52089;51.362;-2.384;2022-09-03T00:39:29;10.00;;;7.10;;
65047;SDS011;52089;51.362;-2.384;2022-09-03T00:47:12;8.13;;;6.37;;
65047;SDS011;52089;51.362;-2.384;2022-09-03T00:54:57;10.97;;;6.90;;
65047;SDS011;52089;51.362;-2.384;2022-09-03T01:07:04;11.97;;;9.03;;
65047;SDS011;52089;51.362;-2.384;2022-09-03T01:10:57;12.77;;;9.15;;
65047;SDS011;52089;51.362;-2.384;2022-09-03T01:19:02;16.13;;;11.63;;
65047;SDS011;52089;51.362;-2.384;2022-09-03T01:27:02;15.13;;;12.13;;
65047;SDS011;52089;51.362;-2.384;2022-09-03T01:31:30;23.63;;;19.20;;
65047;SDS011;52089;51.362;-2.384;2022-09-03T01:44:01;14.43;;;12.70;;
65047;SDS011;52089;51.362;-2.384;2022-09-03T01:48:31;15.30;;;13.00;;
65047;SDS011;52089;51.362;-2.384;2022-09-03T01:52:35;15.97;;;13.40;;
65047;SDS011;52089;51.362;-2.384;2022-09-03T01:56:40;18.80;;;14.57;;
65047;SDS011;52089;51.362;-2.384;2022-09-03T02:00:24;19.15;;;14.73;;
65047;SDS011;52089;51.362;-2.384;2022-09-03T02:04:18;24.63;;;18.27;;
65047;SDS011;52089;51.362;-2.384;2022-09-03T02:08:04;22.23;;;17.83;;
65047;SDS011;52089;51.362;-2.384;2022-09-03T02:11:50;20.67;;;17.30;;
65047;SDS011;52089;51.362;-2.384;2022-09-03T02:15:39;19.93;;;15.67;;
65047;SDS011;52089;51.362;-2.384;2022-09-03T02:19:25;28.30;;;16.53;;
65047;SDS011;52089;51.362;-2.384;2022-09-03T02:23:08;66.93;;;17.63;;
65047;SDS011;52089;51.362;-2.384;2022-09-03T02:26:49;40.93;;;17.90;;
65047;SDS011;52089;51.362;-2.384;2022-09-03T02:30:32;62.70;;;19.00;;
65047;SDS011;52089;51.362;-2.384;2022-09-03T02:34:14;59.07;;;19.77;;
65047;SDS011;52089;51.362;-2.384;2022-09-03T02:37:56;28.83;;;17.67;;
65047;SDS011;52089;51.362;-2.384;2022-09-03T02:41:55;39.90;;;19.17;;
65047;SDS011;52089;51.362;-2.384;2022-09-03T02:45:40;48.60;;;20.03;;
65047;SDS011;52089;51.362;-2.384;2022-09-03T02:49:27;44.77;;;18.53;;
65047;SDS011;52089;51.362;-2.384;2022-09-03T02:53:09;29.93;;;19.03;;
65047;SDS011;52089;51.362;-2.384;2022-09-03T02:56:51;45.90;;;19.17;;
65047;SDS011;52089;51.362;-2.384;2022-09-03T03:00:33;37.27;;;19.30;;
65047;SDS011;52089;51.362;-2.384;2022-09-03T03:04:16;30.90;;;19.40;;
65047;SDS011;52089;51.362;-2.384;2022-09-03T03:07:58;35.10;;;20.00;;
65047;SDS011;52089;51.362;-2.384;2022-09-03T03:11:39;31.07;;;19.93;;
65047;SDS011;52089;51.362;-2.384;2022-09-03T03:15:21;32.47;;;20.03;;
65047;SDS011;52089;51.362;-2.384;2022-09-03T03:19:03;31.27;;;20.20;;
65047;SDS011;52089;51.362;-2.384;2022-09-03T03:22:44;37.70;;;21.13;;
65047;SDS011;52089;51.362;-2.384;2022-09-03T03:26:26;35.37;;;20.57;;
65047;SDS011;52089;51.362;-2.384;2022-09-03T03:30:09;32.03;;;19.57;;
65047;SDS011;52089;51.362;-2.384;2022-09-03T03:33:55;31.37;;;20.80;;
65047;SDS011;52089;51.362;-2.384;2022-09-03T03:37:38;37.87;;;22.10;;
65047;SDS011;52089;51.362;-2.384;2022-09-03T03:41:21;40.23;;;23.63;;
65047;SDS011;52089;51.362;-2.384;2022-09-03T03:45:06;39.90;;;22.17;;
65047;SDS011;52089;51.362;-2.384;2022-09-03T03:48:50;39.53;;;24.20;;
65047;SDS011;52089;51.362;-2.384;2022-09-03T03:52:32;41.33;;;22.43;;
65047;SDS011;52089;51.362;-2.384;2022-09-03T03:56:14;32.77;;;20.03;;
65047;SDS011;52089;51.362;-2.384;2022-09-03T03:59:57;32.47;;;20.60;;
65047;SDS011;52089;51.362;-2.384;2022-09-03T04:03:38;36.00;;;21.73;;
65047;SDS011;52089;51.362;-2.384;2022-09-03T04:07:21;34.37;;;21.70;;
65047;SDS011;52089;51.362;-2.384;2022-09-03T04:11:04;34.70;;;20.60;;
65047;SDS011;52089;51.362;-2.384;2022-09-03T04:14:47;32.63;;;20.27;;
65047;SDS011;52089;51.362;-2.384;2022-09-03T04:18:29;36.63;;;20.00;;
65047;SDS011;52089;51.362;-2.384;2022-09-03T04:22:12;33.87;;;19.77;;
65047;SDS011;52089;51.362;-2.384;2022-09-03T04:25:55;37.90;;;22.47;;
65047;SDS011;52089;51.362;-2.384;2022-09-03T04:29:37;33.00;;;20.83;;
65047;SDS011;52089;51.362;-2.384;2022-09-03T04:33:19;35.07;;;21.03;;
65047;SDS011;52089;51.362;-2.384;2022-09-03T04:37:05;35.00;;;20.70;;
65047;SDS011;52089;51.362;-2.384;2022-09-03T04:40:55;35.93;;;21.97;;
65047;SDS011;52089;51.362;-2.384;2022-09-03T04:44:37;33.27;;;20.40;;
65047;SDS011;52089;51.362;-2.384;2022-09-03T04:48:21;31.40;;;21.03;;
65047;SDS011;52089;51.362;-2.384;2022-09-03T04:52:02;33.23;;;20.93;;
65047;SDS011;52089;51.362;-2.384;2022-09-03T04:55:44;29.90;;;19.87;;
65047;SDS011;52089;51.362;-2.384;2022-09-03T04:59:26;32.83;;;21.77;;
65047;SDS011;52089;51.362;-2.384;2022-09-03T05:03:08;29.43;;;20.47;;
65047;SDS011;52089;51.362;-2.384;2022-09-03T05:06:50;28.67;;;19.20;;
65047;SDS011;52089;51.362;-2.384;2022-09-03T05:10:31;28.70;;;21.37;;
65047;SDS011;52089;51.362;-2.384;2022-09-03T05:14:14;28.33;;;20.23;;
65047;SDS011;52089;51.362;-2.384;2022-09-03T05:17:57;27.40;;;19.90;;
65047;SDS011;52089;51.362;-2.384;2022-09-03T05:21:39;29.03;;;20.57;;
65047;SDS011;52089;51.362;-2.384;2022-09-03T05:25:22;25.57;;;19.70;;
65047;SDS011;52089;51.362;-2.384;2022-09-03T05:29:05;26.50;;;19.87;;
65047;SDS011;52089;51.362;-2.384;2022-09-03T05:32:50;30.00;;;20.47;;
65047;SDS011;52089;51.362;-2.384;2022-09-03T05:36:33;32.60;;;20.03;;
65047;SDS011;52089;51.362;-2.384;2022-09-03T05:40:16;43.60;;;19.90;;
65047;SDS011;52089;51.362;-2.384;2022-09-03T05:43:58;35.60;;;20.37;;
65047;SDS011;52089;51.362;-2.384;2022-09-03T05:47:40;49.30;;;19.87;;
65047;SDS011;52089;51.362;-2.384;2022-09-03T05:51:22;62.23;;;18.97;;
65047;SDS011;52089;51.362;-2.384;2022-09-03T05:55:04;64.83;;;17.23;;
65047;SDS011;52089;51.362;-2.384;2022-09-03T05:58:46;63.27;;;16.67;;
65047;SDS011;52089;51.362;-2.384;2022-09-03T06:02:30;34.23;;;18.40;;
65047;SDS011;52089;51.362;-2.384;2022-09-03T06:06:12;40.97;;;18.80;;
65047;SDS011;52089;51.362;-2.384;2022-09-03T06:09:55;44.43;;;19.80;;
65047;SDS011;52089;51.362;-2.384;2022-09-03T06:13:37;39.67;;;20.90;;
65047;SDS011;52089;51.362;-2.384;2022-09-03T06:17:19;29.77;;;20.33;;
65047;SDS011;52089;51.362;-2.384;2022-09-03T06:21:02;44.30;;;22.50;;
65047;SDS011;52089;51.362;-2.384;2022-09-03T06:24:46;42.60;;;22.23;;
65047;SDS011;52089;51.362;-2.384;2022-09-03T06:28:29;54.33;;;21.73;;
65047;SDS011;52089;51.362;-2.384;2022-09-03T06:32:12;63.13;;;20.77;;
65047;SDS011;52089;51.362;-2.384;2022-09-03T06:35:56;58.10;;;19.93;;
65047;SDS011;52089;51.362;-2.384;2022-09-03T06:39:39;36.73;;;20.57;;
65047;SDS011;52089;51.362;-2.384;2022-09-03T06:43:21;49.50;;;20.23;;
65047;SDS011;52089;51.362;-2.384;2022-09-03T06:47:04;43.23;;;20.57;;
65047;SDS011;52089;51.362;-2.384;2022-09-03T06:50:58;32.33;;;20.97;;
65047;SDS011;52089;51.362;-2.384;2022-09-03T06:54:42;30.10;;;20.63;;
65047;SDS011;52089;51.362;-2.384;2022-09-03T06:58:27;31.47;;;21.00;;
65047;SDS011;52089;51.362;-2.384;2022-09-03T07:02:10;30.13;;;22.00;;
65047;SDS011;52089;51.362;-2.384;2022-09-03T07:05:52;28.27;;;20.57;;
65047;SDS011;52089;51.362;-2.384;2022-09-03T07:09:33;26.17;;;19.17;;
65047;SDS011;52089;51.362;-2.384;2022-09-03T07:13:18;27.77;;;20.30;;
65047;SDS011;52089;51.362;-2.384;2022-09-03T07:17:00;28.00;;;20.07;;
65047;SDS011;52089;51.362;-2.384;2022-09-03T07:20:42;27.97;;;20.67;;
65047;SDS011;52089;51.362;-2.384;2022-09-03T07:24:24;30.20;;;19.97;;
65047;SDS011;52089;51.362;-2.384;2022-09-03T07:28:07;24.73;;;18.43;;
65047;SDS011;52089;51.362;-2.384;2022-09-03T07:31:49;27.77;;;19.47;;
65047;SDS011;52089;51.362;-2.384;2022-09-03T07:35:35;24.80;;;18.03;;
65047;SDS011;52089;51.362;-2.384;2022-09-03T07:39:17;28.23;;;19.27;;
65047;SDS011;52089;51.362;-2.384;2022-09-03T07:43:00;26.47;;;18.63;;
65047;SDS011;52089;51.362;-2.384;2022-09-03T07:46:44;27.73;;;18.90;;
65047;SDS011;52089;51.362;-2.384;2022-09-03T07:50:28;26.90;;;19.47;;
65047;SDS011;52089;51.362;-2.384;2022-09-03T07:54:12;24.17;;;18.70;;
65047;SDS011;52089;51.362;-2.384;2022-09-03T07:57:55;26.40;;;18.73;;
65047;SDS011;52089;51.362;-2.384;2022-09-03T08:01:37;26.00;;;19.10;;
65047;SDS011;52089;51.362;-2.384;2022-09-03T08:05:21;24.40;;;18.57;;
65047;SDS011;52089;51.362;-2.384;2022-09-03T08:09:04;23.70;;;18.27;;
65047;SDS011;52089;51.362;-2.384;2022-09-03T08:12:48;25.77;;;18.73;;
65047;SDS011;52089;51.362;-2.384;2022-09-03T08:16:31;22.43;;;18.33;;
65047;SDS011;52089;51.362;-2.384;2022-09-03T08:20:15;23.57;;;18.37;;
65047;SDS011;52089;51.362;-2.384;2022-09-03T08:23:57;23.63;;;18.13;;
65047;SDS011;52089;51.362;-2.384;2022-09-03T08:27:42;25.13;;;18.17;;
65047;SDS011;52089;51.362;-2.384;2022-09-03T08:31:24;22.93;;;18.43;;
65047;SDS011;52089;51.362;-2.384;2022-09-03T08:35:08;22.20;;;17.57;;
65047;SDS011;52089;51.362;-2.384;2022-09-03T08:38:50;22.57;;;17.23;;
65047;SDS011;52089;51.362;-2.384;2022-09-03T08:46:33;22.63;;;17.13;;
65047;SDS011;52089;51.362;-2.384;2022-09-03T08:50:49;22.07;;;18.10;;
65047;SDS011;52089;51.362;-2.384;2022-09-03T08:54:36;23.90;;;17.50;;
65047;SDS011;52089;51.362;-2.384;2022-09-03T08:58:19;19.07;;;16.10;;
65047;SDS011;52089;51.362;-2.384;2022-09-03T09:02:13;21.03;;;18.60;;
65047;SDS011;52089;51.362;-2.384;2022-09-03T09:10:18;21.93;;;16.03;;
65047;SDS011;52089;51.362;-2.384;2022-09-03T09:14:10;19.30;;;16.63;;
65047;SDS011;52089;51.362;-2.384;2022-09-03T09:18:10;22.50;;;17.00;;
65047;SDS011;52089;51.362;-2.384;2022-09-03T09:22:10;19.65;;;16.65;;
65047;SDS011;52089;51.362;-2.384;2022-09-03T09:29:42;19.70;;;16.27;;
65047;SDS011;52089;51.362;-2.384;2022-09-03T09:33:28;21.30;;;16.17;;
65047;SDS011;52089;51.362;-2.384;2022-09-03T09:37:14;18.67;;;16.67;;
65047;SDS011;52089;51.362;-2.384;2022-09-03T09:41:07;19.63;;;15.73;;
65047;SDS011;52089;51.362;-2.384;2022-09-03T09:44:50;20.20;;;16.37;;
65047;SDS011;52089;51.362;-2.384;2022-09-03T09:48:32;21.73;;;15.63;;
65047;SDS011;52089;51.362;-2.384;2022-09-03T09:52:20;20.50;;;16.10;;
65047;SDS011;52089;51.362;-2.384;2022-09-03T09:56:06;23.23;;;15.80;;
65047;SDS011;52089;51.362;-2.384;2022-09-03T09:59:48;21.63;;;15.23;;
65047;SDS011;52089;51.362;-2.384;2022-09-03T10:03:32;20.00;;;14.83;;
65047;SDS011;52089;51.362;-2.384;2022-09-03T10:11:12;18.10;;;13.93;;
65047;SDS011;52089;51.362;-2.384;2022-09-03T10:14:56;19.20;;;15.27;;
65047;SDS011;52089;51.362;-2.384;2022-09-03T10:19:27;21.43;;;14.70;;
65047;SDS011;52089;51.362;-2.384;2022-09-03T10:26:45;21.77;;;15.40;;
65047;SDS011;52089;51.362;-2.384;2022-09-03T10:30:27;17.63;;;14.50;;
65047;SDS011;52089;51.362;-2.384;2022-09-03T10:34:13;18.27;;;13.80;;
65047;SDS011;52089;51.362;-2.384;2022-09-03T10:42:02;23.10;;;12.60;;
65047;SDS011;52089;51.362;-2.384;2022-09-03T10:46:22;18.13;;;14.07;;
65047;SDS011;52089;51.362;-2.384;2022-09-03T10:50:45;15.23;;;11.53;;
65047;SDS011;52089;51.362;-2.384;2022-09-03T10:54:33;16.77;;;12.30;;
65047;SDS011;52089;51.362;-2.384;2022-09-03T11:06:27;11.43;;;9.75;;
65047;SDS011;52089;51.362;-2.384;2022-09-03T11:13:58;11.85;;;9.52;;
65047;SDS011;52089;51.362;-2.384;2022-09-03T11:17:50;14.38;;;9.80;;
65047;SDS011;52089;51.362;-2.384;2022-09-03T11:21:37;11.55;;;7.72;;
65047;SDS011;52089;51.362;-2.384;2022-09-03T11:25:23;12.57;;;7.60;;
65047;SDS011;52089;51.362;-2.384;2022-09-03T11:29:19;12.48;;;7.93;;
65047;SDS011;52089;51.362;-2.384;2022-09-03T11:33:20;8.80;;;6.25;;
65047;SDS011;52089;51.362;-2.384;2022-09-03T11:41:13;9.95;;;7.05;;
65047;SDS011;52089;51.362;-2.384;2022-09-03T11:48:55;9.50;;;7.27;;
65047;SDS011;52089;51.362;-2.384;2022-09-03T11:53:06;12.48;;;7.82;;
65047;SDS011;52089;51.362;-2.384;2022-09-03T11:56:49;13.83;;;6.83;;
65047;SDS011;52089;51.362;-2.384;2022-09-03T12:00:31;7.83;;;5.43;;
65047;SDS011;52089;51.362;-2.384;2022-09-03T12:04:13;7.73;;;5.30;;
65047;SDS011;52089;51.362;-2.384;2022-09-03T12:12:25;8.37;;;4.30;;
65047;SDS011;52089;51.362;-2.384;2022-09-03T12:20:33;6.30;;;3.77;;
65047;SDS011;52089;51.362;-2.384;2022-09-03T12:24:15;5.77;;;3.30;;
65047;SDS011;52089;51.362;-2.384;2022-09-03T12:28:00;5.77;;;2.97;;
65047;SDS011;52089;51.362;-2.384;2022-09-03T12:31:45;4.03;;;2.97;;
65047;SDS011;52089;51.362;-2.384;2022-09-03T12:35:30;5.20;;;2.63;;
65047;SDS011;52089;51.362;-2.384;2022-09-03T12:39:32;5.93;;;2.80;;
65047;SDS011;52089;51.362;-2.384;2022-09-03T12:43:34;5.93;;;3.10;;
65047;SDS011;52089;51.362;-2.384;2022-09-03T12:47:20;4.57;;;2.83;;
65047;SDS011;52089;51.362;-2.384;2022-09-03T12:51:19;5.80;;;3.00;;
65047;SDS011;52089;51.362;-2.384;2022-09-03T12:59:16;5.07;;;2.50;;
65047;SDS011;52089;51.362;-2.384;2022-09-03T13:03:18;5.68;;;2.92;;
65047;SDS011;52089;51.362;-2.384;2022-09-03T13:07:05;4.95;;;2.35;;
65047;SDS011;52089;51.362;-2.384;2022-09-03T13:10:54;9.65;;;2.28;;
65047;SDS011;52089;51.362;-2.384;2022-09-03T13:14:46;3.83;;;2.63;;
65047;SDS011;52089;51.362;-2.384;2022-09-03T13:18:37;4.38;;;2.58;;
65047;SDS011;52089;51.362;-2.384;2022-09-03T13:22:32;7.47;;;3.03;;
65047;SDS011;52089;51.362;-2.384;2022-09-03T13:34:48;7.18;;;3.08;;
65047;SDS011;52089;51.362;-2.384;2022-09-03T13:42:43;4.90;;;3.03;;
65047;SDS011;52089;51.362;-2.384;2022-09-03T13:50:45;7.22;;;4.03;;
65047;SDS011;52089;51.362;-2.384;2022-09-03T13:54:41;4.93;;;3.28;;
65047;SDS011;52089;51.362;-2.384;2022-09-03T13:58:35;4.45;;;3.53;;
65047;SDS011;52089;51.362;-2.384;2022-09-03T14:18:59;5.03;;;2.40;;
65047;SDS011;52089;51.362;-2.384;2022-09-03T14:26:53;5.65;;;2.03;;
65047;SDS011;52089;51.362;-2.384;2022-09-03T14:30:46;5.93;;;2.22;;
65047;SDS011;52089;51.362;-2.384;2022-09-03T14:38:31;5.30;;;2.27;;
65047;SDS011;52089;51.362;-2.384;2022-09-03T14:47:00;8.90;;;5.50;;
65047;SDS011;52089;51.362;-2.384;2022-09-03T14:51:05;6.87;;;2.73;;
65047;SDS011;52089;51.362;-2.384;2022-09-03T15:11:20;7.00;;;2.70;;
65047;SDS011;52089;51.362;-2.384;2022-09-03T15:15:16;3.83;;;2.00;;
65047;SDS011;52089;51.362;-2.384;2022-09-03T15:19:09;8.50;;;2.50;;
65047;SDS011;52089;51.362;-2.384;2022-09-03T15:31:31;4.37;;;1.30;;
65047;SDS011;52089;51.362;-2.384;2022-09-03T15:39:42;3.80;;;0.70;;
65047;SDS011;52089;51.362;-2.384;2022-09-03T15:43:30;3.63;;;1.00;;
65047;SDS011;52089;51.362;-2.384;2022-09-03T15:51:33;2.57;;;1.20;;
65047;SDS011;52089;51.362;-2.384;2022-09-03T15:55:31;3.83;;;1.10;;
65047;SDS011;52089;51.362;-2.384;2022-09-03T16:03:11;4.27;;;1.00;;
65047;SDS011;52089;51.362;-2.384;2022-09-03T16:22:56;3.70;;;1.43;;
65047;SDS011;52089;51.362;-2.384;2022-09-03T16:27:06;4.10;;;0.90;;
65047;SDS011;52089;51.362;-2.384;2022-09-03T16:30:58;4.07;;;1.20;;
65047;SDS011;52089;51.362;-2.384;2022-09-03T16:39:20;1.40;;;0.70;;
65047;SDS011;52089;51.362;-2.384;2022-09-03T16:51:25;3.90;;;0.83;;
65047;SDS011;52089;51.362;-2.384;2022-09-03T16:55:22;4.20;;;1.17;;
65047;SDS011;52089;51.362;-2.384;2022-09-03T17:15:30;7.07;;;1.37;;
65047;SDS011;52089;51.362;-2.384;2022-09-03T17:19:42;3.87;;;1.10;;
65047;SDS011;52089;51.362;-2.384;2022-09-03T17:31:29;3.27;;;1.10;;
65047;SDS011;52089;51.362;-2.384;2022-09-03T17:35:53;3.97;;;0.80;;
65047;SDS011;52089;51.362;-2.384;2022-09-03T17:40:00;3.33;;;0.97;;
65047;SDS011;52089;51.362;-2.384;2022-09-03T17:52:19;4.63;;;1.20;;
65047;SDS011;52089;51.362;-2.384;2022-09-03T18:00:10;4.03;;;1.27;;
65047;SDS011;52089;51.362;-2.384;2022-09-03T18:04:12;5.85;;;1.20;;
65047;SDS011;52089;51.362;-2.384;2022-09-03T18:16:06;6.47;;;1.53;;
65047;SDS011;52089;51.362;-2.384;2022-09-03T18:20:27;3.57;;;1.30;;
65047;SDS011;52089;51.362;-2.384;2022-09-03T18:28:38;7.70;;;1.63;;
65047;SDS011;52089;51.362;-2.384;2022-09-03T18:32:43;6.70;;;1.83;;
65047;SDS011;52089;51.362;-2.384;2022-09-03T18:36:47;3.93;;;1.40;;
65047;SDS011;52089;51.362;-2.384;2022-09-03T18:50:13;8.40;;;1.87;;
65047;SDS011;52089;51.362;-2.384;2022-09-03T18:54:24;6.77;;;1.80;;
65047;SDS011;52089;51.362;-2.384;2022-09-03T19:02:56;4.97;;;1.55;;
65047;SDS011;52089;51.362;-2.384;2022-09-03T19:15:31;4.20;;;1.73;;
65047;SDS011;52089;51.362;-2.384;2022-09-03T19:24:06;5.67;;;2.40;;
65047;SDS011;52089;51.362;-2.384;2022-09-03T19:32:17;6.50;;;2.20;;
65047;SDS011;52089;51.362;-2.384;2022-09-03T19:44:33;5.07;;;1.93;;
65047;SDS011;52089;51.362;-2.384;2022-09-03T19:53:00;5.23;;;2.40;;
65047;SDS011;52089;51.362;-2.384;2022-09-03T19:57:03;6.83;;;3.40;;
65047;SDS011;52089;51.362;-2.384;2022-09-03T20:01:04;5.83;;;2.30;;
65047;SDS011;52089;51.362;-2.384;2022-09-03T20:05:05;7.27;;;2.40;;
65047;SDS011;52089;51.362;-2.384;2022-09-03T20:09:09;4.10;;;2.30;;
65047;SDS011;52089;51.362;-2.384;2022-09-03T20:13:18;7.87;;;2.40;;
65047;SDS011;52089;51.362;-2.384;2022-09-03T20:17:26;4.23;;;1.90;;
65047;SDS011;52089;51.362;-2.384;2022-09-03T20:25:23;9.67;;;3.50;;
65047;SDS011;52089;51.362;-2.384;2022-09-03T20:33:17;5.13;;;2.33;;
65047;SDS011;52089;51.362;-2.384;2022-09-03T20:37:35;6.40;;;2.47;;
65047;SDS011;52089;51.362;-2.384;2022-09-03T20:49:10;5.70;;;2.43;;
65047;SDS011;52089;51.362;-2.384;2022-09-03T20:57:35;5.83;;;2.23;;
65047;SDS011;52089;51.362;-2.384;2022-09-03T21:01:20;6.53;;;2.60;;
65047;SDS011;52089;51.362;-2.384;2022-09-03T21:25:31;7.37;;;3.30;;
65047;SDS011;52089;51.362;-2.384;2022-09-03T21:29:20;8.47;;;3.30;;
65047;SDS011;52089;51.362;-2.384;2022-09-03T21:33:10;9.73;;;4.17;;
65047;SDS011;52089;51.362;-2.384;2022-09-03T21:36:56;9.63;;;5.03;;
65047;SDS011;52089;51.362;-2.384;2022-09-03T21:40:51;9.17;;;3.43;;
65047;SDS011;52089;51.362;-2.384;2022-09-03T21:49:00;8.47;;;3.40;;
65047;SDS011;52089;51.362;-2.384;2022-09-03T21:52:51;5.33;;;2.73;;
65047;SDS011;52089;51.362;-2.384;2022-09-03T22:00:31;6.10;;;2.97;;
65047;SDS011;52089;51.362;-2.384;2022-09-03T22:04:13;4.43;;;3.10;;
65047;SDS011;52089;51.362;-2.384;2022-09-03T22:11:54;5.03;;;3.00;;
65047;SDS011;52089;51.362;-2.384;2022-09-03T22:15:44;9.33;;;4.03;;
65047;SDS011;52089;51.362;-2.384;2022-09-03T22:19:30;8.20;;;3.30;;
65047;SDS011;52089;51.362;-2.384;2022-09-03T22:23:19;5.73;;;3.00;;
65047;SDS011;52089;51.362;-2.384;2022-09-03T22:27:17;7.30;;;3.30;;
65047;SDS011;52089;51.362;-2.384;2022-09-03T22:31:21;6.37;;;2.90;;
65047;SDS011;52089;51.362;-2.384;2022-09-03T22:47:28;7.70;;;3.13;;
65047;SDS011;52089;51.362;-2.384;2022-09-03T22:51:29;8.00;;;3.50;;
65047;SDS011;52089;51.362;-2.384;2022-09-03T22:55:21;8.83;;;3.90;;
65047;SDS011;52089;51.362;-2.384;2022-09-03T23:03:01;6.30;;;3.20;;
65047;SDS011;52089;51.362;-2.384;2022-09-03T23:06:55;9.27;;;3.90;;
65047;SDS011;52089;51.362;-2.384;2022-09-03T23:10:47;10.73;;;4.10;;
65047;SDS011;52089;51.362;-2.384;2022-09-03T23:14:35;10.13;;;3.80;;
65047;SDS011;52089;51.362;-2.384;2022-09-03T23:18:29;5.90;;;3.50;;
65047;SDS011;52089;51.362;-2.384;2022-09-03T23:22:17;8.73;;;3.93;;
65047;SDS011;52089;51.362;-2.384;2022-09-03T23:26:21;9.10;;;5.50;;
65047;SDS011;52089;51.362;-2.384;2022-09-03T23:30:15;6.47;;;4.33;;
65047;SDS011;52089;51.362;-2.384;2022-09-03T23:33:57;7.97;;;4.60;;
65047;SDS011;52089;51.362;-2.384;2022-09-03T23:37:47;6.20;;;4.97;;
65047;SDS011;52089;51.362;-2.384;2022-09-03T23:57:59;10.97;;;6.17;;
